Pagrindinis puslapis
METAR-TAF:

METAR-TAF

Oro uostai :

Cervia, Italija

platuma: 44-13N, ilguma: 012-18E, Aukštis: 6 m

Dabartinis oras

Ataskaita buvo paskelbta 55 minutes, ne 12:55 UTC
Vėjas 6 kt iš Šiaurės Vakarų
Temperatūra 18°C
Drėgmė 45%
Slėgis 1030 hPa
Matomumas 10 km arba daugiau
nėra debesų žemiau 1500 m ir nėra kamuolinių lietaus debesų

METAR: LIPC 251255Z 32006KT CAVOK 18/06 Q1030 RMK SKC VIS MIN 9999 WIND THR11 35006KT WIND THR29 /////KT BLU

Laikas: 14:50 (13:50 UTC)

Prognozė

Ataskaita buvo paskelbta 2 valandos ir 50 minutes, ne 11:00 UTC
Prognozė galioja nuo 25 metu 12 UTC su 25 metu 21 UTC
Vėjas 7 kt iš Šiaurės Rytų
Matomumas 10 km arba daugiau
nėra debesų žemiau 1500 m ir nėra kamuolinių lietaus debesų
Tapsmas
nuo 25 metu 18 UTC su 25 metu 20 UTC
Matomumas: 5000 m
rūkana

TAF: LIPC 251100Z 2512/2521 05007KT CAVOK BECMG 2518/2520 5000 BR NSC

Orai ataskaitas ir orų prognozės (METAR, TAF).

turimą stotys yra geltonos ir raudonos taškus žemėlapyje.

Perkelti pele per norėdami pamatyti stoties vardą.

Tada spustelėkite, norėdami matyti oro stebėjimo ir prognozės.

Norėdami pakeisti žemėlapį: spustelėkite ant žalios mygtukų su juodo kryžiaus žemyn,; žalią mygtuką su brūkšneliu, jei norite nutolinti; arba žalių rodyklių gretimoms žemėlapius.


METAR-TAF: